createdAt,value
2023-05-20T00:01:51.099Z,15.00
2023-05-20T00:04:18.494Z,15.00
2023-05-20T00:06:46.035Z,15.00
2023-05-20T00:09:13.379Z,15.00
2023-05-20T00:11:40.879Z,14.90
2023-05-20T00:14:08.196Z,14.90
2023-05-20T00:16:35.753Z,14.90
2023-05-20T00:19:03.697Z,15.00
2023-05-20T00:21:31.381Z,15.00
2023-05-20T00:23:58.746Z,15.00
2023-05-20T00:26:26.846Z,15.00
2023-05-20T00:28:56.136Z,15.00
2023-05-20T00:31:23.458Z,15.00
2023-05-20T00:33:51.013Z,15.10
2023-05-20T00:36:18.234Z,15.10
2023-05-20T00:38:45.628Z,15.00
2023-05-20T00:41:13.020Z,15.00
2023-05-20T00:43:40.320Z,15.00
2023-05-20T00:46:08.099Z,15.00
2023-05-20T00:48:43.828Z,15.00
2023-05-20T00:51:13.052Z,15.00
2023-05-20T00:53:41.616Z,15.00
2023-05-20T00:56:09.586Z,15.00
2023-05-20T00:58:39.316Z,15.00
2023-05-20T01:01:06.975Z,14.90
2023-05-20T01:03:35.052Z,14.90
2023-05-20T01:06:03.401Z,14.90
2023-05-20T01:08:30.839Z,14.90
2023-05-20T01:11:09.000Z,14.90
2023-05-20T01:13:45.826Z,15.00
2023-05-20T01:16:18.136Z,14.90
2023-05-20T01:18:48.740Z,14.90
2023-05-20T01:21:17.464Z,14.90
2023-05-20T01:23:44.744Z,14.90
2023-05-20T01:26:15.004Z,15.00
2023-05-20T01:28:45.612Z,15.00
2023-05-20T01:31:30.148Z,14.90
2023-05-20T01:33:58.761Z,14.90
2023-05-20T01:36:27.846Z,14.90
2023-05-20T01:38:56.307Z,14.90
2023-05-20T01:41:27.021Z,14.90
2023-05-20T01:43:56.297Z,14.90
2023-05-20T01:46:23.725Z,14.90
2023-05-20T01:48:51.305Z,14.90
2023-05-20T01:51:18.786Z,14.90
2023-05-20T01:53:46.091Z,14.90
2023-05-20T01:56:13.737Z,14.90
2023-05-20T01:58:41.228Z,14.90
2023-05-20T02:01:10.020Z,14.90
2023-05-20T02:03:37.423Z,14.90
2023-05-20T02:06:04.783Z,14.80
2023-05-20T02:08:32.161Z,14.80
2023-05-20T02:11:00.433Z,14.80
2023-05-20T02:13:28.448Z,14.70
2023-05-20T02:15:56.059Z,14.70
2023-05-20T02:18:26.699Z,14.60
2023-05-20T02:20:54.129Z,14.60
2023-05-20T02:23:21.411Z,14.50
2023-05-20T02:25:49.036Z,14.50
2023-05-20T02:28:16.892Z,14.50
2023-05-20T02:30:44.299Z,14.40
2023-05-20T02:33:12.445Z,14.30
2023-05-20T02:35:40.500Z,14.20
2023-05-20T02:38:07.900Z,14.30
2023-05-20T02:40:37.349Z,14.20
2023-05-20T02:43:04.649Z,14.10
2023-05-20T02:45:34.737Z,14.10
2023-05-20T02:48:02.332Z,14.10
2023-05-20T02:50:31.654Z,14.00
2023-05-20T02:52:59.063Z,14.00
2023-05-20T02:55:26.509Z,14.00
2023-05-20T02:57:54.149Z,14.00
2023-05-20T03:00:23.406Z,14.00
2023-05-20T03:02:50.672Z,13.90
2023-05-20T03:05:18.155Z,13.90
2023-05-20T03:07:46.536Z,13.90
2023-05-20T03:10:15.627Z,13.90
2023-05-20T03:12:43.456Z,13.90
2023-05-20T03:15:11.529Z,13.90
2023-05-20T03:17:39.089Z,13.90
2023-05-20T03:20:07.649Z,13.90
2023-05-20T03:22:35.098Z,13.80
2023-05-20T03:25:02.510Z,13.90
2023-05-20T03:27:32.290Z,13.90
2023-05-20T03:29:59.834Z,13.90
2023-05-20T03:32:27.387Z,13.90
2023-05-20T03:34:54.767Z,13.80
2023-05-20T03:37:22.136Z,13.80
2023-05-20T03:39:49.497Z,13.90
2023-05-20T03:42:17.086Z,13.90
2023-05-20T03:44:44.424Z,13.90
2023-05-20T03:47:11.828Z,13.90
2023-05-20T03:49:41.183Z,13.90
2023-05-20T03:52:08.536Z,13.90
2023-05-20T03:54:36.839Z,14.00
2023-05-20T03:57:05.935Z,14.00
2023-05-20T03:59:33.425Z,14.00
2023-05-20T04:02:00.815Z,14.00
2023-05-20T04:04:28.475Z,14.00
2023-05-20T04:06:56.428Z,14.00
2023-05-20T04:09:24.494Z,14.10
2023-05-20T04:11:53.588Z,14.10
2023-05-20T04:14:21.344Z,14.10
2023-05-20T04:16:50.434Z,14.10
2023-05-20T04:19:19.866Z,14.10
2023-05-20T04:21:47.216Z,14.10
2023-05-20T04:24:14.953Z,14.10
2023-05-20T04:26:43.358Z,14.10
2023-05-20T04:29:12.096Z,14.10
2023-05-20T04:31:39.613Z,14.10
2023-05-20T04:34:08.802Z,14.20
2023-05-20T04:36:38.314Z,14.20
2023-05-20T04:39:05.728Z,14.20
2023-05-20T04:41:33.116Z,14.20
2023-05-20T04:44:02.067Z,14.30
2023-05-20T04:46:31.786Z,14.30
2023-05-20T04:48:59.284Z,14.40
2023-05-20T04:51:26.810Z,14.50
2023-05-20T04:53:54.205Z,14.50
2023-05-20T04:56:21.585Z,14.70
2023-05-20T04:58:49.217Z,14.70
2023-05-20T05:01:16.791Z,14.80
2023-05-20T05:03:44.108Z,14.80
2023-05-20T05:06:11.770Z,14.90
2023-05-20T05:08:39.193Z,15.00
2023-05-20T05:11:07.346Z,14.90
2023-05-20T05:13:34.805Z,15.00
2023-05-20T05:16:03.299Z,15.10
2023-05-20T05:18:32.182Z,15.10
2023-05-20T05:21:03.067Z,15.20
2023-05-20T05:23:30.882Z,15.40
2023-05-20T05:25:58.435Z,15.50
2023-05-20T05:28:26.125Z,15.50
2023-05-20T05:30:56.406Z,15.60
2023-05-20T05:33:23.805Z,15.60
2023-05-20T05:35:51.772Z,15.70
2023-05-20T05:38:19.043Z,15.70
2023-05-20T05:40:47.403Z,15.70
2023-05-20T05:43:15.665Z,15.80
2023-05-20T05:45:43.381Z,15.90
2023-05-20T05:48:11.623Z,15.90
2023-05-20T05:50:39.478Z,16.00
2023-05-20T05:53:06.985Z,16.00
2023-05-20T05:55:37.131Z,16.10
2023-05-20T05:58:04.453Z,16.30
2023-05-20T06:00:31.940Z,16.40
2023-05-20T06:02:59.710Z,16.30
2023-05-20T06:05:33.949Z,16.40
2023-05-20T06:08:02.248Z,16.40
2023-05-20T06:10:31.242Z,16.50
2023-05-20T06:12:58.618Z,16.50
2023-05-20T06:15:27.343Z,16.60
2023-05-20T06:17:55.002Z,16.60
2023-05-20T06:20:22.392Z,16.60
2023-05-20T06:22:49.769Z,16.60
2023-05-20T06:25:17.206Z,16.70
2023-05-20T06:27:45.371Z,16.60
2023-05-20T06:30:16.651Z,16.60
2023-05-20T06:32:44.298Z,16.70
2023-05-20T06:35:12.273Z,16.80
2023-05-20T06:37:39.800Z,16.80
2023-05-20T06:40:07.941Z,16.90
2023-05-20T06:42:36.459Z,16.90
2023-05-20T06:45:05.619Z,16.80
2023-05-20T06:47:38.113Z,16.90
2023-05-20T06:50:06.344Z,17.00
2023-05-20T06:52:33.616Z,17.00
2023-05-20T06:55:00.889Z,17.00
2023-05-20T06:57:28.261Z,17.10
2023-05-20T06:59:56.708Z,17.10
2023-05-20T07:02:26.314Z,17.10
2023-05-20T07:04:54.261Z,17.10
2023-05-20T07:07:21.687Z,17.20
2023-05-20T07:09:49.328Z,17.30
2023-05-20T07:12:16.779Z,17.30
2023-05-20T07:14:44.165Z,17.40
2023-05-20T07:17:11.958Z,17.40
2023-05-20T07:19:39.688Z,17.50
2023-05-20T07:22:07.013Z,17.60
2023-05-20T07:24:35.755Z,17.70
2023-05-20T07:27:05.235Z,17.70
2023-05-20T07:29:32.679Z,17.80
2023-05-20T07:32:00.366Z,17.90
2023-05-20T07:34:28.089Z,17.90
2023-05-20T07:36:55.497Z,18.10
2023-05-20T07:39:23.019Z,18.10
2023-05-20T07:41:50.627Z,18.10
2023-05-20T07:44:19.221Z,18.20
2023-05-20T07:46:49.564Z,18.30
2023-05-20T07:49:17.067Z,18.30
2023-05-20T07:51:46.640Z,18.30
2023-05-20T07:54:15.680Z,18.50
2023-05-20T07:56:44.985Z,18.50
2023-05-20T07:59:12.393Z,18.50
2023-05-20T08:01:43.790Z,18.60
2023-05-20T08:04:12.646Z,18.70
2023-05-20T08:06:41.431Z,18.80
2023-05-20T08:09:12.754Z,18.80
2023-05-20T08:11:47.373Z,18.90
2023-05-20T08:14:15.236Z,19.00
2023-05-20T08:16:45.008Z,18.90
2023-05-20T08:19:12.722Z,19.10
2023-05-20T08:21:40.120Z,19.20
2023-05-20T08:24:08.163Z,19.20
2023-05-20T08:26:37.238Z,19.30
2023-05-20T08:29:04.755Z,19.50
2023-05-20T08:31:32.813Z,19.60
2023-05-20T08:34:00.899Z,19.70
2023-05-20T08:36:28.538Z,19.80
2023-05-20T08:38:56.533Z,19.90
2023-05-20T08:41:24.981Z,20.00
2023-05-20T08:43:54.458Z,20.10
2023-05-20T08:46:22.786Z,20.20
2023-05-20T08:48:50.598Z,20.30
2023-05-20T08:51:23.852Z,20.40
2023-05-20T08:53:51.842Z,20.50
2023-05-20T08:56:20.112Z,20.60
2023-05-20T08:58:47.550Z,20.70
2023-05-20T09:01:14.967Z,20.90
2023-05-20T09:03:43.485Z,21.00
2023-05-20T09:06:16.905Z,21.10
2023-05-20T09:08:44.840Z,21.30
2023-05-20T09:11:12.862Z,21.30
2023-05-20T09:13:40.269Z,21.30
2023-05-20T09:16:09.880Z,21.50
2023-05-20T09:18:41.232Z,21.50
2023-05-20T09:21:12.281Z,21.60
2023-05-20T09:23:39.574Z,21.60
2023-05-20T09:26:07.097Z,21.70
2023-05-20T09:28:36.369Z,21.80
2023-05-20T09:31:05.917Z,21.90
2023-05-20T09:33:35.144Z,22.00
2023-05-20T09:36:09.908Z,22.10
2023-05-20T09:38:39.669Z,22.20
2023-05-20T09:41:15.698Z,22.60
2023-05-20T09:43:43.180Z,22.70
2023-05-20T09:46:11.489Z,23.00
2023-05-20T09:48:39.946Z,23.40
2023-05-20T09:51:08.285Z,23.50
2023-05-20T09:53:36.768Z,23.60
2023-05-20T09:56:04.522Z,24.00
2023-05-20T09:58:36.016Z,24.40
2023-05-20T10:01:03.660Z,24.60
2023-05-20T10:03:32.319Z,24.80
2023-05-20T10:06:02.719Z,25.10
2023-05-20T10:08:36.081Z,25.10
2023-05-20T10:11:36.907Z,25.30
2023-05-20T10:14:16.069Z,25.40
2023-05-20T10:16:54.477Z,25.60
2023-05-20T10:19:30.367Z,25.70
2023-05-20T10:22:01.995Z,25.80
2023-05-20T10:24:32.586Z,25.80
2023-05-20T10:27:03.712Z,26.00
2023-05-20T10:29:42.641Z,26.20
2023-05-20T10:32:09.933Z,26.00
2023-05-20T10:34:51.497Z,26.10
2023-05-20T10:37:26.116Z,25.90
2023-05-20T10:40:03.320Z,26.20
2023-05-20T10:42:30.633Z,26.60
2023-05-20T10:44:58.010Z,26.80
2023-05-20T10:47:26.482Z,26.40
2023-05-20T10:49:54.127Z,26.50
2023-05-20T10:52:21.739Z,26.50
2023-05-20T10:54:59.750Z,26.40
2023-05-20T10:57:28.807Z,26.10
2023-05-20T10:59:56.440Z,26.20
2023-05-20T11:02:27.254Z,26.50
2023-05-20T11:04:58.506Z,26.70
2023-05-20T11:07:31.568Z,26.90
2023-05-20T11:09:59.555Z,26.60
2023-05-20T11:12:29.012Z,26.70
2023-05-20T11:14:56.339Z,26.80
2023-05-20T11:17:23.727Z,27.10
2023-05-20T11:19:51.196Z,27.80
2023-05-20T11:22:18.577Z,27.70
2023-05-20T11:24:46.818Z,27.20
2023-05-20T11:27:14.339Z,27.20
2023-05-20T11:29:42.479Z,27.70
2023-05-20T11:32:09.842Z,28.30
2023-05-20T11:34:38.444Z,28.80
2023-05-20T11:37:10.499Z,28.90
2023-05-20T11:39:38.122Z,28.90
2023-05-20T11:42:06.487Z,29.20
2023-05-20T11:44:34.319Z,29.60
2023-05-20T11:47:03.453Z,29.70
2023-05-20T11:49:31.293Z,30.10
2023-05-20T11:51:58.905Z,30.20
2023-05-20T11:54:26.411Z,30.40
2023-05-20T11:56:55.282Z,30.60
2023-05-20T11:59:25.091Z,30.70
2023-05-20T12:01:52.541Z,31.00
2023-05-20T12:04:20.114Z,31.30
2023-05-20T12:06:51.188Z,31.50
2023-05-20T12:09:18.522Z,31.50
2023-05-20T12:11:45.918Z,31.70
2023-05-20T12:14:13.389Z,31.20
2023-05-20T12:16:40.888Z,31.80
2023-05-20T12:19:09.528Z,32.30
2023-05-20T12:21:36.873Z,32.10
2023-05-20T12:24:07.094Z,32.20
2023-05-20T12:26:35.645Z,32.60
2023-05-20T12:29:03.103Z,32.60
2023-05-20T12:31:33.019Z,32.50
2023-05-20T12:34:01.935Z,32.50
2023-05-20T12:36:29.231Z,32.30
2023-05-20T12:38:56.763Z,32.30
2023-05-20T12:41:24.193Z,32.00
2023-05-20T12:43:51.631Z,31.90
2023-05-20T12:46:19.140Z,32.10
2023-05-20T12:48:46.452Z,31.90
2023-05-20T12:51:13.758Z,30.90
2023-05-20T12:53:41.090Z,30.60
2023-05-20T12:56:08.824Z,31.50
2023-05-20T12:58:36.591Z,32.60
2023-05-20T13:01:03.966Z,33.20
2023-05-20T13:03:31.477Z,33.50
2023-05-20T13:05:59.531Z,33.00
2023-05-20T13:08:28.700Z,31.90
2023-05-20T13:10:56.510Z,31.50
2023-05-20T13:13:24.553Z,31.70
2023-05-20T13:15:51.851Z,33.00
2023-05-20T13:18:19.661Z,33.50
2023-05-20T13:20:47.107Z,33.70
2023-05-20T13:23:14.502Z,33.20
2023-05-20T13:25:41.961Z,32.70
2023-05-20T13:28:09.895Z,32.40
2023-05-20T13:30:37.384Z,32.10
2023-05-20T13:33:05.091Z,31.60
2023-05-20T13:35:32.405Z,31.20
2023-05-20T13:37:59.911Z,30.90
2023-05-20T13:40:27.215Z,30.00
2023-05-20T13:42:54.680Z,29.20
2023-05-20T13:45:23.394Z,29.30
2023-05-20T13:47:50.889Z,29.60
2023-05-20T13:50:18.377Z,29.90
2023-05-20T13:52:45.718Z,30.10
2023-05-20T13:55:13.346Z,30.40
2023-05-20T13:57:40.659Z,30.40
2023-05-20T14:00:09.630Z,30.70
2023-05-20T14:02:36.946Z,30.80
2023-05-20T14:05:04.905Z,30.20
2023-05-20T14:07:32.213Z,30.20
2023-05-20T14:09:59.441Z,30.20
2023-05-20T14:12:26.936Z,30.10
2023-05-20T14:14:54.235Z,29.70
2023-05-20T14:17:21.505Z,29.70
2023-05-20T14:19:49.083Z,29.50
2023-05-20T14:22:16.457Z,29.20
2023-05-20T14:24:43.868Z,29.20
2023-05-20T14:27:11.668Z,29.10
2023-05-20T14:29:38.895Z,29.00
2023-05-20T14:32:06.687Z,28.90
2023-05-20T14:34:33.885Z,28.70
2023-05-20T14:37:07.652Z,28.50
2023-05-20T14:39:35.150Z,28.60
2023-05-20T14:42:03.290Z,28.60
2023-05-20T14:44:31.232Z,28.70
2023-05-20T14:46:58.748Z,28.80
2023-05-20T14:49:26.406Z,28.80
2023-05-20T14:51:53.714Z,28.90
2023-05-20T14:54:25.164Z,29.20
2023-05-20T14:56:52.638Z,29.30
2023-05-20T14:59:20.028Z,29.10
2023-05-20T15:01:47.307Z,30.60
2023-05-20T15:04:14.793Z,31.80
2023-05-20T15:06:42.298Z,32.70
2023-05-20T15:09:10.234Z,33.80
2023-05-20T15:11:37.738Z,35.10
2023-05-20T15:14:05.098Z,36.10
2023-05-20T15:16:32.569Z,37.20
2023-05-20T15:18:59.928Z,38.40
2023-05-20T15:21:27.335Z,40.30
2023-05-20T15:23:54.741Z,40.70
2023-05-20T15:26:22.112Z,40.00
2023-05-20T15:28:49.454Z,40.80
2023-05-20T15:31:17.045Z,41.40
2023-05-20T15:33:44.573Z,42.00
2023-05-20T15:36:11.932Z,43.10
2023-05-20T15:38:39.208Z,44.00
2023-05-20T15:41:08.170Z,43.10
2023-05-20T15:43:35.846Z,40.20
2023-05-20T15:46:03.163Z,40.40
2023-05-20T15:48:30.438Z,40.30
2023-05-20T15:50:57.735Z,40.80
2023-05-20T15:53:24.961Z,40.90
2023-05-20T15:55:52.544Z,41.20
2023-05-20T15:58:20.096Z,40.50
2023-05-20T16:00:48.339Z,39.70
2023-05-20T16:03:16.702Z,39.30
2023-05-20T16:05:44.120Z,38.60
2023-05-20T16:08:11.564Z,37.90
2023-05-20T16:10:38.922Z,37.20
2023-05-20T16:13:06.226Z,36.60
2023-05-20T16:15:36.628Z,36.10
2023-05-20T16:18:04.639Z,35.30
2023-05-20T16:20:32.207Z,34.00
2023-05-20T16:22:59.776Z,33.60
2023-05-20T16:25:27.077Z,33.10
2023-05-20T16:27:54.301Z,32.80
2023-05-20T16:30:21.582Z,31.50
2023-05-20T16:32:49.062Z,31.00
2023-05-20T16:35:16.796Z,30.60
2023-05-20T16:37:44.751Z,30.10
2023-05-20T16:40:12.663Z,29.70
2023-05-20T16:42:40.053Z,29.30
2023-05-20T16:45:08.054Z,29.20
2023-05-20T16:47:37.120Z,28.90
2023-05-20T16:50:04.909Z,28.80
2023-05-20T16:52:34.775Z,28.80
2023-05-20T16:55:04.106Z,29.10
2023-05-20T16:57:32.811Z,29.40
2023-05-20T17:00:00.154Z,29.30
2023-05-20T17:02:27.784Z,29.50
2023-05-20T17:04:55.541Z,30.60
2023-05-20T17:07:22.979Z,31.40
2023-05-20T17:09:50.540Z,32.10
2023-05-20T17:12:17.859Z,31.40
2023-05-20T17:14:45.176Z,31.60
2023-05-20T17:17:14.188Z,32.10
2023-05-20T17:19:41.674Z,32.50
2023-05-20T17:22:09.209Z,32.70
2023-05-20T17:24:36.629Z,32.50
2023-05-20T17:27:06.243Z,32.40
2023-05-20T17:29:33.579Z,32.20
2023-05-20T17:32:01.264Z,32.00
2023-05-20T17:34:28.535Z,31.90
2023-05-20T17:36:57.292Z,31.30
2023-05-20T17:39:24.596Z,30.70
2023-05-20T17:41:52.088Z,30.20
2023-05-20T17:44:19.660Z,29.70
2023-05-20T17:46:47.162Z,29.00
2023-05-20T17:49:14.694Z,28.70
2023-05-20T17:51:42.518Z,28.10
2023-05-20T17:54:10.115Z,27.30
2023-05-20T17:56:37.565Z,27.00
2023-05-20T17:59:05.083Z,26.50
2023-05-20T18:01:33.466Z,26.30
2023-05-20T18:04:04.556Z,26.00
2023-05-20T18:06:34.850Z,25.70
2023-05-20T18:09:02.330Z,25.40
2023-05-20T18:11:32.079Z,25.20
2023-05-20T18:14:00.510Z,25.00
2023-05-20T18:16:29.700Z,24.80
2023-05-20T18:18:57.662Z,24.50
2023-05-20T18:21:25.749Z,24.30
2023-05-20T18:23:53.148Z,24.20
2023-05-20T18:26:21.859Z,24.20
2023-05-20T18:28:50.078Z,24.40
2023-05-20T18:31:17.495Z,24.40
2023-05-20T18:33:44.907Z,24.10
2023-05-20T18:36:12.975Z,23.90
2023-05-20T18:38:41.792Z,23.70
2023-05-20T18:41:09.397Z,23.50
2023-05-20T18:43:37.079Z,23.10
2023-05-20T18:46:04.732Z,22.80
2023-05-20T18:48:32.090Z,22.60
2023-05-20T18:50:59.427Z,22.40
2023-05-20T18:53:26.826Z,22.20
2023-05-20T18:55:54.152Z,22.10
2023-05-20T18:58:21.873Z,21.90
2023-05-20T19:00:49.381Z,21.80
2023-05-20T19:03:17.195Z,21.70
2023-05-20T19:05:44.654Z,21.60
2023-05-20T19:08:11.961Z,21.40
2023-05-20T19:10:39.382Z,21.30
2023-05-20T19:13:06.667Z,21.30
2023-05-20T19:15:34.613Z,21.30
2023-05-20T19:18:02.171Z,21.20
2023-05-20T19:20:29.561Z,21.10
2023-05-20T19:22:56.917Z,21.00
2023-05-20T19:25:24.168Z,20.90
2023-05-20T19:27:51.832Z,20.90
2023-05-20T19:30:19.121Z,20.80
2023-05-20T19:32:46.556Z,20.70
2023-05-20T19:35:13.860Z,20.70
2023-05-20T19:37:41.273Z,20.70
2023-05-20T19:40:09.266Z,20.60
2023-05-20T19:42:36.576Z,20.60
2023-05-20T19:45:04.345Z,20.60
2023-05-20T19:47:31.706Z,20.50
2023-05-20T19:49:59.088Z,20.40
2023-05-20T19:52:26.532Z,20.40
2023-05-20T19:54:53.855Z,20.40
2023-05-20T19:57:21.257Z,20.30
2023-05-20T19:59:49.459Z,20.30
2023-05-20T20:02:17.831Z,20.30
2023-05-20T20:04:45.232Z,20.20
2023-05-20T20:07:12.707Z,20.20
2023-05-20T20:09:40.418Z,20.10
2023-05-20T20:12:08.016Z,20.10
2023-05-20T20:14:35.325Z,20.10
2023-05-20T20:17:03.417Z,20.00
2023-05-20T20:19:30.867Z,20.00
2023-05-20T20:21:58.450Z,20.00
2023-05-20T20:24:27.776Z,20.00
2023-05-20T20:26:58.367Z,20.00
2023-05-20T20:29:26.397Z,20.00
2023-05-20T20:31:54.564Z,19.90
2023-05-20T20:34:22.260Z,19.90
2023-05-20T20:36:50.782Z,19.90
2023-05-20T20:39:21.288Z,19.80
2023-05-20T20:41:53.090Z,19.80
2023-05-20T20:44:25.542Z,19.80
2023-05-20T20:46:54.834Z,19.70
2023-05-20T20:49:23.190Z,19.70
2023-05-20T20:51:51.077Z,19.70
2023-05-20T20:54:18.889Z,19.70
2023-05-20T20:56:47.213Z,19.60
2023-05-20T20:59:16.053Z,19.60
2023-05-20T21:01:44.895Z,19.60
2023-05-20T21:04:14.407Z,19.60
2023-05-20T21:06:42.834Z,19.50
2023-05-20T21:09:12.226Z,19.50
2023-05-20T21:11:45.620Z,19.50
2023-05-20T21:14:13.759Z,19.50
2023-05-20T21:16:44.572Z,19.40
2023-05-20T21:19:14.138Z,19.40
2023-05-20T21:21:43.202Z,19.40
2023-05-20T21:24:15.823Z,19.40
2023-05-20T21:26:44.122Z,19.40
2023-05-20T21:29:12.575Z,19.40
2023-05-20T21:31:44.837Z,19.30
2023-05-20T21:34:13.781Z,19.30
2023-05-20T21:36:42.954Z,19.30
2023-05-20T21:39:11.509Z,19.20
2023-05-20T21:41:41.818Z,19.20
2023-05-20T21:44:09.957Z,19.20
2023-05-20T21:46:40.217Z,19.10
2023-05-20T21:49:08.473Z,19.10
2023-05-20T21:51:38.903Z,19.10
2023-05-20T21:54:07.381Z,19.00
2023-05-20T21:56:36.274Z,18.90
2023-05-20T21:59:04.434Z,19.00
2023-05-20T22:01:32.336Z,18.90
2023-05-20T22:04:02.615Z,18.90
2023-05-20T22:06:35.432Z,18.90
2023-05-20T22:09:03.759Z,18.80
2023-05-20T22:11:38.115Z,18.80
2023-05-20T22:14:06.206Z,18.70
2023-05-20T22:16:36.484Z,18.70
2023-05-20T22:19:06.199Z,18.70
2023-05-20T22:21:39.681Z,18.70
2023-05-20T22:24:15.582Z,18.60
2023-05-20T22:26:42.985Z,18.60
2023-05-20T22:29:10.444Z,18.60
2023-05-20T22:31:38.271Z,18.60
2023-05-20T22:34:05.796Z,18.60
2023-05-20T22:36:36.567Z,18.60
2023-05-20T22:39:04.949Z,18.50
2023-05-20T22:41:32.380Z,18.50
2023-05-20T22:43:59.725Z,18.50
2023-05-20T22:46:27.058Z,18.50
2023-05-20T22:48:55.671Z,18.50
2023-05-20T22:51:24.681Z,18.50
2023-05-20T22:53:52.601Z,18.40
2023-05-20T22:56:21.369Z,18.40
2023-05-20T22:58:48.743Z,18.40
2023-05-20T23:01:17.153Z,18.40
2023-05-20T23:03:45.090Z,18.30
2023-05-20T23:06:12.835Z,18.30
2023-05-20T23:08:43.032Z,18.30
2023-05-20T23:11:10.834Z,18.30
2023-05-20T23:13:38.296Z,18.30
2023-05-20T23:16:06.347Z,18.20
2023-05-20T23:18:33.848Z,18.20
2023-05-20T23:21:01.234Z,18.20
2023-05-20T23:23:31.570Z,18.20
2023-05-20T23:26:00.233Z,18.20
2023-05-20T23:28:27.589Z,18.20
2023-05-20T23:30:54.970Z,18.20
2023-05-20T23:33:25.417Z,18.20
2023-05-20T23:35:53.677Z,18.10
2023-05-20T23:38:21.654Z,18.10
2023-05-20T23:40:49.651Z,18.10
2023-05-20T23:43:17.153Z,18.10
2023-05-20T23:45:44.558Z,18.10
2023-05-20T23:48:13.459Z,18.10
2023-05-20T23:50:41.263Z,18.10
2023-05-20T23:53:08.711Z,18.10
2023-05-20T23:55:36.350Z,18.10
2023-05-20T23:58:03.869Z,18.10
